createdAt,value
2018-03-26T00:00:28.246Z,81.50
2018-03-26T00:02:05.852Z,89.75
2018-03-26T00:03:45.013Z,79.75
2018-03-26T00:05:22.442Z,78.75
2018-03-26T00:07:00.055Z,83.00
2018-03-26T00:08:37.865Z,89.75
2018-03-26T00:10:16.118Z,82.50
2018-03-26T00:11:53.817Z,81.75
2018-03-26T00:13:32.088Z,77.75
2018-03-26T00:15:10.324Z,92.25
2018-03-26T00:16:48.303Z,84.00
2018-03-26T00:18:26.271Z,87.25
2018-03-26T00:20:03.850Z,89.75
2018-03-26T00:21:42.417Z,85.25
2018-03-26T00:23:20.478Z,86.00
2018-03-26T00:24:58.575Z,83.75
2018-03-26T00:26:36.093Z,91.00
2018-03-26T00:28:14.687Z,82.00
2018-03-26T00:29:53.052Z,86.00
2018-03-26T00:31:32.145Z,84.25
2018-03-26T00:33:10.136Z,89.25
2018-03-26T00:34:48.706Z,86.25
2018-03-26T00:36:26.727Z,83.50
2018-03-26T00:38:04.473Z,80.25
2018-03-26T00:39:42.426Z,86.50
2018-03-26T00:41:21.299Z,86.00
2018-03-26T00:42:59.501Z,89.50
2018-03-26T00:44:37.275Z,82.25
2018-03-26T00:46:16.380Z,85.25
2018-03-26T00:47:54.182Z,82.50
2018-03-26T00:49:33.008Z,83.25
2018-03-26T00:51:10.690Z,80.00
2018-03-26T00:52:49.333Z,80.00
2018-03-26T00:54:27.795Z,91.00
2018-03-26T00:56:06.361Z,86.50
2018-03-26T00:57:44.152Z,86.50
2018-03-26T00:59:22.039Z,86.50
2018-03-26T01:00:59.937Z,95.75
2018-03-26T01:02:38.105Z,90.50
2018-03-26T01:04:15.932Z,87.75
2018-03-26T01:05:54.927Z,89.25
2018-03-26T01:07:32.770Z,90.50
2018-03-26T01:09:10.872Z,88.25
2018-03-26T01:10:49.260Z,88.00
2018-03-26T01:12:26.824Z,89.25
2018-03-26T01:14:04.648Z,85.75
2018-03-26T01:15:42.908Z,87.50
2018-03-26T01:17:21.268Z,86.75
2018-03-26T01:18:59.538Z,81.00
2018-03-26T01:20:37.737Z,90.25
2018-03-26T01:22:16.864Z,89.50
2018-03-26T01:23:54.965Z,88.50
2018-03-26T01:25:32.847Z,89.00
2018-03-26T01:27:10.636Z,91.25
2018-03-26T01:28:49.140Z,91.25
2018-03-26T01:30:28.605Z,95.50
2018-03-26T01:32:07.045Z,88.50
2018-03-26T01:33:44.894Z,93.00
2018-03-26T01:35:23.997Z,96.50
2018-03-26T01:37:02.653Z,94.75
2018-03-26T01:38:40.600Z,88.00
2018-03-26T01:40:19.498Z,92.75
2018-03-26T01:43:50.304Z,96.25
2018-03-26T01:45:30.241Z,90.50
2018-03-26T01:47:08.539Z,91.50
2018-03-26T01:48:46.429Z,91.75
2018-03-26T01:50:24.507Z,94.00
2018-03-26T01:52:02.599Z,92.00
2018-03-26T01:53:41.972Z,92.50
2018-03-26T01:55:19.649Z,94.00
2018-03-26T01:56:58.030Z,88.00
2018-03-26T01:58:37.128Z,100.75
2018-03-26T02:00:18.548Z,89.50
2018-03-26T02:01:57.361Z,96.25
2018-03-26T02:03:35.020Z,92.00
2018-03-26T02:05:13.523Z,94.25
2018-03-26T02:06:51.823Z,94.25
2018-03-26T02:08:30.239Z,90.50
2018-03-26T02:10:09.176Z,87.50
2018-03-26T02:11:47.711Z,89.00
2018-03-26T02:13:25.697Z,95.50
2018-03-26T02:15:04.421Z,88.50
2018-03-26T02:16:42.033Z,95.50
2018-03-26T02:18:19.442Z,99.75
2018-03-26T02:19:57.943Z,94.25
2018-03-26T02:21:36.645Z,92.75
2018-03-26T02:23:14.471Z,86.25
2018-03-26T02:24:52.081Z,96.50
2018-03-26T02:26:30.718Z,89.25
2018-03-26T02:28:09.226Z,86.00
2018-03-26T02:29:46.855Z,88.75
2018-03-26T02:31:24.740Z,87.25
2018-03-26T02:33:02.455Z,91.25
2018-03-26T02:34:43.225Z,92.50
2018-03-26T02:36:21.892Z,81.50
2018-03-26T02:37:59.578Z,85.25
2018-03-26T02:39:37.162Z,84.50
2018-03-26T02:41:14.959Z,84.75
2018-03-26T02:42:53.417Z,87.25
2018-03-26T02:44:31.460Z,84.50
2018-03-26T02:46:10.380Z,81.50
2018-03-26T02:47:47.736Z,79.25
2018-03-26T02:49:25.419Z,83.25
2018-03-26T02:51:03.729Z,82.50
2018-03-26T02:52:41.070Z,82.25
2018-03-26T02:54:19.518Z,85.50
2018-03-26T02:55:57.247Z,79.50
2018-03-26T02:57:36.097Z,80.50
2018-03-26T02:59:13.802Z,79.50
2018-03-26T03:00:52.710Z,76.25
2018-03-26T03:02:30.279Z,81.75
2018-03-26T03:04:08.113Z,80.50
2018-03-26T03:05:46.488Z,82.50
2018-03-26T03:07:24.402Z,74.25
2018-03-26T03:09:02.200Z,72.50
2018-03-26T03:10:40.115Z,75.50
2018-03-26T03:12:18.270Z,67.00
2018-03-26T03:13:55.785Z,74.50
2018-03-26T03:15:33.525Z,74.50
2018-03-26T03:17:11.757Z,74.75
2018-03-26T03:18:49.448Z,78.00
2018-03-26T03:20:26.965Z,70.50
2018-03-26T03:22:06.065Z,76.00
2018-03-26T03:23:44.121Z,76.75
2018-03-26T03:25:22.556Z,76.00
2018-03-26T03:27:00.179Z,70.50
2018-03-26T03:28:37.582Z,73.50
2018-03-26T03:30:17.501Z,82.25
2018-03-26T03:31:55.871Z,68.75
2018-03-26T03:33:33.470Z,70.25
2018-03-26T03:35:11.202Z,78.00
2018-03-26T03:36:49.742Z,76.50
2018-03-26T03:38:28.585Z,74.25
2018-03-26T03:40:07.220Z,72.25
2018-03-26T03:41:44.793Z,72.00
2018-03-26T03:43:22.531Z,69.00
2018-03-26T03:44:59.938Z,70.50
2018-03-26T03:46:37.426Z,71.00
2018-03-26T03:48:15.410Z,74.50
2018-03-26T03:49:52.248Z,71.50
2018-03-26T03:51:28.910Z,66.50
2018-03-26T03:53:06.646Z,76.00
2018-03-26T03:54:45.202Z,71.75
2018-03-26T03:56:23.242Z,70.00
2018-03-26T03:58:00.370Z,78.75
2018-03-26T03:59:37.616Z,71.25
2018-03-26T04:01:16.349Z,76.50
2018-03-26T04:02:53.592Z,75.75
2018-03-26T04:04:31.554Z,70.25
2018-03-26T04:06:08.859Z,78.25
2018-03-26T04:07:46.543Z,75.50
2018-03-26T04:09:24.660Z,63.75
2018-03-26T04:11:03.144Z,71.00
2018-03-26T04:12:40.727Z,71.75
2018-03-26T04:14:18.534Z,77.25
2018-03-26T04:15:56.535Z,71.25
2018-03-26T04:17:34.319Z,75.00
2018-03-26T04:19:11.785Z,75.75
2018-03-26T04:20:49.880Z,69.00
2018-03-26T04:22:27.698Z,76.50
2018-03-26T04:24:05.326Z,71.50
2018-03-26T04:25:42.802Z,78.50
2018-03-26T04:27:21.047Z,75.50
2018-03-26T04:28:58.858Z,83.00
2018-03-26T04:30:36.289Z,78.75
2018-03-26T04:32:13.767Z,67.75
2018-03-26T04:33:51.423Z,76.25
2018-03-26T04:35:28.730Z,76.25
2018-03-26T04:37:07.173Z,78.25
2018-03-26T04:38:45.077Z,69.50
2018-03-26T04:40:23.347Z,74.25
2018-03-26T04:42:01.500Z,77.25
2018-03-26T04:43:39.470Z,79.75
2018-03-26T04:45:19.682Z,74.50
2018-03-26T04:46:57.820Z,68.50
2018-03-26T04:48:35.150Z,75.75
2018-03-26T04:50:13.034Z,79.25
2018-03-26T04:51:50.798Z,80.00
2018-03-26T04:53:28.887Z,72.75
2018-03-26T04:55:07.096Z,71.50
2018-03-26T04:56:46.305Z,74.50
2018-03-26T04:58:23.985Z,74.00
2018-03-26T05:00:02.201Z,79.75
2018-03-26T05:01:39.782Z,76.50
2018-03-26T05:03:17.364Z,80.00
2018-03-26T05:04:54.501Z,82.75
2018-03-26T05:06:32.943Z,77.50
2018-03-26T05:08:10.349Z,79.25
2018-03-26T05:09:47.914Z,72.00
2018-03-26T05:11:25.165Z,77.50
2018-03-26T05:13:03.601Z,79.25
2018-03-26T05:14:41.204Z,86.00
2018-03-26T05:16:19.275Z,80.25
2018-03-26T05:17:56.258Z,76.75
2018-03-26T05:19:35.199Z,71.25
2018-03-26T05:21:12.526Z,80.25
2018-03-26T05:22:51.135Z,82.75
2018-03-26T05:24:29.557Z,72.50
2018-03-26T05:26:07.458Z,68.75
2018-03-26T05:27:46.068Z,72.75
2018-03-26T05:29:24.558Z,70.50
2018-03-26T05:31:02.437Z,78.00
2018-03-26T05:32:40.552Z,72.25
2018-03-26T05:34:17.926Z,78.50
2018-03-26T05:35:56.138Z,83.75
2018-03-26T05:37:33.861Z,83.75
2018-03-26T05:39:11.881Z,84.25
2018-03-26T05:40:49.864Z,80.75
2018-03-26T05:42:27.405Z,78.00
2018-03-26T05:44:05.186Z,81.75
2018-03-26T05:45:43.245Z,77.00
2018-03-26T05:47:20.681Z,76.75
2018-03-26T05:48:58.608Z,81.50
2018-03-26T05:50:36.191Z,81.75
2018-03-26T05:52:14.257Z,87.25
2018-03-26T05:53:52.089Z,84.50
2018-03-26T05:55:29.843Z,84.75
2018-03-26T05:57:07.663Z,81.25
2018-03-26T05:58:46.407Z,85.00
2018-03-26T06:00:26.607Z,92.00
2018-03-26T06:02:04.456Z,85.25
2018-03-26T06:03:42.054Z,86.50
2018-03-26T06:05:20.017Z,88.75
2018-03-26T06:06:57.761Z,86.75
2018-03-26T06:08:35.618Z,84.25
2018-03-26T06:10:13.427Z,92.00
2018-03-26T06:11:51.249Z,87.25
2018-03-26T06:13:28.888Z,85.50
2018-03-26T06:15:07.662Z,79.25
2018-03-26T06:16:58.133Z,90.75
2018-03-26T06:18:36.556Z,90.50
2018-03-26T06:20:14.350Z,92.00
2018-03-26T06:21:52.955Z,98.25
2018-03-26T06:23:30.586Z,80.25
2018-03-26T06:25:09.053Z,91.50
2018-03-26T06:26:46.908Z,88.75
2018-03-26T06:28:25.905Z,91.75
2018-03-26T06:30:04.047Z,86.50
2018-03-26T06:31:42.391Z,86.25
2018-03-26T06:33:20.923Z,96.00
2018-03-26T06:34:58.571Z,87.25
2018-03-26T06:36:36.624Z,91.75
2018-03-26T06:38:14.948Z,97.75
2018-03-26T06:39:52.411Z,102.75
2018-03-26T06:41:32.976Z,103.75
2018-03-26T06:43:11.622Z,100.75
2018-03-26T06:44:49.531Z,101.00
2018-03-26T06:46:28.280Z,96.25
2018-03-26T06:48:06.238Z,102.25
2018-03-26T06:49:44.709Z,99.25
2018-03-26T06:51:22.780Z,98.75
2018-03-26T06:53:00.924Z,93.00
2018-03-26T06:54:38.482Z,98.75
2018-03-26T06:56:16.699Z,97.75
2018-03-26T06:57:54.600Z,107.50
2018-03-26T06:59:32.260Z,104.50
2018-03-26T07:01:10.299Z,108.00
2018-03-26T07:02:47.986Z,101.75
2018-03-26T07:04:26.121Z,105.00
2018-03-26T07:06:04.530Z,99.25
2018-03-26T07:07:49.709Z,106.50
2018-03-26T07:09:28.406Z,105.00
2018-03-26T07:11:06.428Z,99.00
2018-03-26T07:12:43.752Z,101.50
2018-03-26T07:14:22.004Z,97.75
2018-03-26T07:16:01.118Z,104.25
2018-03-26T07:17:39.615Z,98.75
2018-03-26T07:19:17.391Z,97.25
2018-03-26T07:20:55.293Z,91.00
2018-03-26T07:22:33.835Z,100.25
2018-03-26T07:24:11.608Z,92.50
2018-03-26T07:25:49.207Z,93.50
2018-03-26T07:27:26.799Z,92.25
2018-03-26T07:29:04.526Z,97.75
2018-03-26T07:30:41.924Z,91.00
2018-03-26T07:32:19.559Z,94.75
2018-03-26T07:33:57.729Z,96.50
2018-03-26T07:35:35.705Z,93.50
2018-03-26T07:37:13.680Z,100.00
2018-03-26T07:38:51.009Z,92.25
2018-03-26T07:40:28.303Z,97.00
2018-03-26T07:42:05.968Z,101.50
2018-03-26T07:43:43.287Z,95.50
2018-03-26T07:45:21.229Z,94.00
2018-03-26T07:46:59.638Z,93.25
2018-03-26T07:48:38.630Z,88.25
2018-03-26T07:50:16.097Z,89.25
2018-03-26T07:51:53.433Z,85.50
2018-03-26T07:53:30.692Z,87.50
2018-03-26T07:55:08.506Z,94.25
2018-03-26T07:56:46.535Z,88.50
2018-03-26T07:58:23.947Z,81.00
2018-03-26T08:00:01.293Z,81.25
2018-03-26T08:01:38.854Z,90.75
2018-03-26T08:03:16.242Z,84.25
2018-03-26T08:04:53.635Z,82.50
2018-03-26T08:06:31.122Z,87.00
2018-03-26T08:08:09.070Z,89.00
2018-03-26T08:09:54.292Z,87.50
2018-03-26T08:11:32.467Z,84.50
2018-03-26T08:13:09.746Z,85.50
2018-03-26T08:14:47.550Z,78.00
2018-03-26T08:16:25.112Z,87.00
2018-03-26T08:18:02.705Z,78.75
2018-03-26T08:19:40.094Z,84.50
2018-03-26T08:21:18.271Z,78.25
2018-03-26T08:22:55.543Z,69.25
2018-03-26T08:24:33.013Z,69.50
2018-03-26T08:26:10.337Z,76.00
2018-03-26T08:27:48.989Z,69.50
2018-03-26T08:29:26.634Z,78.00
2018-03-26T08:31:04.832Z,65.50
2018-03-26T08:32:42.970Z,77.00
2018-03-26T08:34:22.046Z,74.25
2018-03-26T08:36:00.257Z,72.25
2018-03-26T08:37:38.411Z,81.25
2018-03-26T08:39:15.731Z,83.00
2018-03-26T08:40:53.291Z,79.75
2018-03-26T08:42:30.997Z,73.25
2018-03-26T08:44:08.735Z,72.50
2018-03-26T08:45:47.167Z,76.75
2018-03-26T08:47:24.907Z,79.50
2018-03-26T08:49:01.930Z,78.75
2018-03-26T08:50:40.669Z,70.25
2018-03-26T08:52:18.964Z,81.75
2018-03-26T08:53:56.821Z,70.00
2018-03-26T08:55:33.880Z,72.25
2018-03-26T08:57:11.053Z,68.00
2018-03-26T08:58:48.364Z,71.00
2018-03-26T09:00:28.289Z,67.50
2018-03-26T09:02:05.456Z,68.75
2018-03-26T09:03:43.179Z,66.25
2018-03-26T09:05:21.481Z,64.50
2018-03-26T09:07:00.442Z,71.75
2018-03-26T09:08:37.513Z,71.50
2018-03-26T09:10:15.738Z,62.75
2018-03-26T09:11:53.775Z,71.50
2018-03-26T09:13:32.158Z,64.50
2018-03-26T09:15:09.582Z,65.75
2018-03-26T09:16:47.517Z,58.50
2018-03-26T09:18:25.058Z,58.25
2018-03-26T09:20:02.098Z,58.00
2018-03-26T09:21:39.266Z,52.25
2018-03-26T09:23:16.390Z,59.25
2018-03-26T09:24:53.891Z,56.25
2018-03-26T09:26:31.495Z,55.50
2018-03-26T09:28:08.626Z,61.75
2018-03-26T09:29:45.769Z,50.50
2018-03-26T09:31:23.521Z,46.25
2018-03-26T09:33:01.845Z,39.75
2018-03-26T09:34:38.835Z,46.00
2018-03-26T09:36:16.413Z,35.00
2018-03-26T09:37:54.351Z,37.00
2018-03-26T09:39:32.674Z,45.50
2018-03-26T09:41:09.762Z,41.00
2018-03-26T09:42:47.146Z,43.00
2018-03-26T09:44:25.856Z,47.00
2018-03-26T09:46:03.934Z,33.50
2018-03-26T09:47:41.329Z,36.25
2018-03-26T09:49:18.595Z,34.75
2018-03-26T09:50:56.701Z,28.00
2018-03-26T09:52:34.599Z,29.75
2018-03-26T09:54:11.929Z,19.25
2018-03-26T09:55:48.907Z,23.25
2018-03-26T09:57:26.486Z,30.25
2018-03-26T09:59:04.146Z,25.75
2018-03-26T10:00:45.372Z,29.50
2018-03-26T10:02:24.009Z,25.25
2018-03-26T10:04:00.876Z,30.00
2018-03-26T10:05:38.667Z,29.00
2018-03-26T10:07:16.895Z,25.75
2018-03-26T10:08:54.356Z,25.75
2018-03-26T10:10:31.765Z,28.00
2018-03-26T10:12:12.152Z,22.75
2018-03-26T10:13:50.111Z,24.25
2018-03-26T10:15:29.571Z,10.25
2018-03-26T10:17:06.699Z,8.75
2018-03-26T10:18:44.168Z,17.00
2018-03-26T10:20:21.460Z,23.25
2018-03-26T10:21:58.484Z,14.00
2018-03-26T10:23:35.486Z,14.75
2018-03-26T10:25:12.916Z,10.00
2018-03-26T10:26:49.897Z,11.00
2018-03-26T10:28:27.012Z,11.00
2018-03-26T10:30:06.970Z,25.50
2018-03-26T10:31:45.530Z,15.50
2018-03-26T10:33:22.998Z,23.25
2018-03-26T10:34:59.913Z,21.75
2018-03-26T10:36:37.338Z,18.25
2018-03-26T10:38:14.856Z,20.75
2018-03-26T10:39:52.494Z,22.25
2018-03-26T10:41:31.433Z,21.25
2018-03-26T10:43:12.721Z,21.25
2018-03-26T10:44:51.110Z,28.75
2018-03-26T10:46:28.671Z,21.75
2018-03-26T10:48:06.190Z,19.50
2018-03-26T10:49:44.258Z,14.50
2018-03-26T10:54:54.980Z,19.25
2018-03-26T10:56:35.153Z,20.75
2018-03-26T11:06:41.154Z,14.50
2018-03-26T11:08:18.189Z,10.50
2018-03-26T11:09:55.223Z,23.50
2018-03-26T11:11:32.228Z,16.75
2018-03-26T11:13:09.774Z,20.00
2018-03-26T11:14:46.875Z,18.50
2018-03-26T11:16:24.231Z,16.75
2018-03-26T11:18:01.714Z,19.25
2018-03-26T11:19:39.508Z,24.00
2018-03-26T11:21:16.716Z,21.50
2018-03-26T11:22:54.849Z,16.00
2018-03-26T11:26:30.373Z,17.50
2018-03-26T11:28:12.068Z,18.00
2018-03-26T11:36:47.778Z,14.75
2018-03-26T11:38:32.513Z,16.25
2018-03-26T11:40:10.072Z,17.00
2018-03-26T11:41:47.150Z,15.50
2018-03-26T11:43:25.349Z,14.00
2018-03-26T11:45:02.377Z,15.25
2018-03-26T11:46:40.733Z,15.00
2018-03-26T11:48:17.838Z,15.25
2018-03-26T11:49:55.962Z,11.25
2018-03-26T11:51:37.888Z,12.00
2018-03-26T11:53:16.074Z,17.00
2018-03-26T11:54:54.648Z,16.50
2018-03-26T11:58:24.454Z,9.00
2018-03-26T12:04:12.141Z,12.75
2018-03-26T12:05:49.984Z,13.25
2018-03-26T12:07:30.714Z,21.50
2018-03-26T12:09:08.433Z,18.00
2018-03-26T12:10:46.159Z,18.25
2018-03-26T12:12:23.305Z,22.50
2018-03-26T12:14:01.182Z,21.25
2018-03-26T12:15:38.986Z,20.75
2018-03-26T12:17:16.353Z,17.50
2018-03-26T12:18:54.221Z,16.75
2018-03-26T12:21:06.110Z,17.50
2018-03-26T12:22:44.446Z,14.50
2018-03-26T12:25:28.036Z,18.25
2018-03-26T12:27:07.455Z,16.50
2018-03-26T12:29:00.285Z,14.75
2018-03-26T12:30:37.745Z,17.75
2018-03-26T12:32:15.757Z,15.50
2018-03-26T12:34:05.736Z,20.50
2018-03-26T12:35:55.597Z,17.25
2018-03-26T12:37:32.561Z,17.25
2018-03-26T12:39:14.499Z,20.00
2018-03-26T12:40:54.130Z,15.00
2018-03-26T12:42:31.901Z,17.50
2018-03-26T12:44:08.856Z,14.75
2018-03-26T12:46:02.045Z,15.50
2018-03-26T12:53:15.466Z,13.25
2018-03-26T12:54:53.949Z,15.00
2018-03-26T12:56:31.085Z,16.50
2018-03-26T12:58:46.337Z,12.75
2018-03-26T13:00:31.130Z,15.25
2018-03-26T13:02:27.238Z,16.25
2018-03-26T13:04:04.904Z,17.50
2018-03-26T13:05:42.390Z,15.50
2018-03-26T13:07:19.561Z,19.00
2018-03-26T13:08:56.773Z,14.75
2018-03-26T13:10:33.786Z,12.00
2018-03-26T13:12:11.329Z,11.75
2018-03-26T13:13:48.617Z,9.50
2018-03-26T13:15:28.839Z,16.00
2018-03-26T13:17:07.073Z,9.25
2018-03-26T13:18:44.566Z,13.25
2018-03-26T13:20:21.750Z,11.25
2018-03-26T13:21:58.772Z,10.25
2018-03-26T13:23:36.176Z,15.75
2018-03-26T13:25:14.825Z,14.25
2018-03-26T13:26:53.193Z,12.00
2018-03-26T13:28:33.739Z,14.25
2018-03-26T13:30:12.427Z,13.75
2018-03-26T13:31:53.870Z,16.75
2018-03-26T13:33:31.973Z,14.75
2018-03-26T13:35:09.060Z,16.00
2018-03-26T13:36:47.102Z,9.75
2018-03-26T13:38:25.404Z,7.75
2018-03-26T13:40:03.631Z,8.00
2018-03-26T13:41:40.959Z,11.25
2018-03-26T13:43:19.000Z,11.50
2018-03-26T13:44:56.713Z,13.50
2018-03-26T13:46:34.244Z,12.50
2018-03-26T13:48:11.876Z,12.00
2018-03-26T13:49:48.969Z,10.25
2018-03-26T13:51:27.318Z,11.50
2018-03-26T13:53:08.936Z,11.00
2018-03-26T13:54:54.747Z,12.00
2018-03-26T13:56:32.809Z,9.00
2018-03-26T13:58:10.057Z,12.00
2018-03-26T13:59:47.997Z,10.25
2018-03-26T14:01:25.307Z,13.50
2018-03-26T14:03:03.021Z,13.25
2018-03-26T14:04:40.118Z,7.75
2018-03-26T14:06:17.172Z,9.50
2018-03-26T14:12:57.749Z,13.00
2018-03-26T14:15:50.264Z,13.75
2018-03-26T14:21:51.266Z,11.75
2018-03-26T14:23:28.362Z,7.00
2018-03-26T14:25:05.930Z,8.25
2018-03-26T14:28:16.538Z,10.75
2018-03-26T14:30:00.058Z,9.00
2018-03-26T14:31:38.100Z,8.75
2018-03-26T14:33:16.675Z,8.00
2018-03-26T14:35:08.130Z,7.75
2018-03-26T14:36:46.000Z,9.25
2018-03-26T14:38:23.462Z,9.00
2018-03-26T14:40:00.625Z,8.75
2018-03-26T14:41:37.940Z,9.00
2018-03-26T14:43:16.204Z,8.75
2018-03-26T14:44:54.008Z,7.50
2018-03-26T14:46:31.500Z,8.75
2018-03-26T14:48:09.484Z,10.50
2018-03-26T14:49:47.373Z,8.00
2018-03-26T14:51:24.910Z,9.75
2018-03-26T14:53:01.914Z,8.75
2018-03-26T14:54:39.019Z,9.25
2018-03-26T14:56:16.374Z,9.50
2018-03-26T14:57:54.010Z,9.50
2018-03-26T15:01:31.784Z,14.75
2018-03-26T15:03:09.453Z,8.25
2018-03-26T15:04:48.824Z,10.00
2018-03-26T15:06:26.765Z,9.00
2018-03-26T15:08:05.652Z,10.00
2018-03-26T15:09:43.417Z,9.00
2018-03-26T15:11:22.398Z,11.25
2018-03-26T15:12:59.580Z,9.00
2018-03-26T15:14:38.687Z,9.00
2018-03-26T15:16:19.031Z,7.25
2018-03-26T15:17:56.652Z,7.25
2018-03-26T15:19:33.626Z,12.75
2018-03-26T15:21:11.409Z,7.75
2018-03-26T15:22:48.896Z,7.75
2018-03-26T15:24:27.375Z,9.00
2018-03-26T15:26:05.005Z,8.50
2018-03-26T15:27:41.970Z,11.50
2018-03-26T15:29:19.693Z,8.75
2018-03-26T15:30:58.621Z,12.00
2018-03-26T15:32:36.961Z,11.00
2018-03-26T15:34:14.194Z,14.50
2018-03-26T15:35:51.333Z,12.50
2018-03-26T15:37:29.185Z,15.50
2018-03-26T15:39:07.460Z,12.50
2018-03-26T15:40:45.100Z,15.25
2018-03-26T15:42:23.267Z,10.50
2018-03-26T15:44:01.368Z,13.75
2018-03-26T15:45:38.749Z,14.50
2018-03-26T16:02:43.965Z,17.50
2018-03-26T16:04:28.138Z,14.50
2018-03-26T16:06:05.510Z,14.50
2018-03-26T16:07:44.305Z,12.75
2018-03-26T16:09:21.598Z,14.75
2018-03-26T16:10:59.154Z,19.75
2018-03-26T16:12:36.373Z,12.50
2018-03-26T16:14:14.232Z,13.00
2018-03-26T16:15:52.371Z,14.75
2018-03-26T16:17:29.718Z,16.50
2018-03-26T16:19:07.593Z,17.25
2018-03-26T16:28:55.483Z,16.00
2018-03-26T16:30:34.037Z,15.75
2018-03-26T16:32:11.919Z,13.00
2018-03-26T16:33:49.981Z,13.25
2018-03-26T16:35:27.780Z,12.50
2018-03-26T16:37:04.876Z,14.75
2018-03-26T16:38:44.089Z,15.25
2018-03-26T16:40:21.068Z,14.75
2018-03-26T16:42:11.801Z,13.75
2018-03-26T16:43:53.801Z,18.75
2018-03-26T16:45:31.605Z,16.50
2018-03-26T16:47:08.856Z,19.00
2018-03-26T16:48:49.357Z,22.25
2018-03-26T16:50:29.917Z,18.50
2018-03-26T16:52:08.393Z,21.00
2018-03-26T16:53:46.463Z,17.50
2018-03-26T16:55:24.186Z,16.00
2018-03-26T16:57:07.070Z,16.75
2018-03-26T17:04:43.757Z,19.75
2018-03-26T17:06:23.808Z,17.50
2018-03-26T17:08:02.393Z,15.00
2018-03-26T17:09:39.644Z,15.00
2018-03-26T17:11:17.295Z,21.00
2018-03-26T17:12:55.216Z,16.50
2018-03-26T17:14:33.514Z,16.00
2018-03-26T17:16:10.787Z,18.50
2018-03-26T17:17:48.687Z,19.25
2018-03-26T17:19:27.695Z,20.00
2018-03-26T17:21:05.588Z,18.00
2018-03-26T17:22:43.149Z,18.00
2018-03-26T17:24:21.240Z,23.00
2018-03-26T17:25:58.693Z,18.50
2018-03-26T17:37:26.073Z,16.50
2018-03-26T17:39:03.356Z,14.75
2018-03-26T17:40:40.361Z,19.00
2018-03-26T17:42:17.793Z,17.25
2018-03-26T17:43:55.129Z,18.25
2018-03-26T17:45:35.421Z,21.50
2018-03-26T17:47:12.658Z,16.00
2018-03-26T17:48:50.699Z,22.50
2018-03-26T17:50:28.494Z,18.75
2018-03-26T17:52:06.239Z,20.00
2018-03-26T17:53:43.272Z,21.00
2018-03-26T17:55:21.146Z,24.50
2018-03-26T17:56:59.019Z,19.75
2018-03-26T17:58:36.238Z,22.50
2018-03-26T18:10:05.576Z,16.50
2018-03-26T18:11:42.641Z,22.00
2018-03-26T18:13:19.622Z,21.25
2018-03-26T18:14:56.541Z,19.00
2018-03-26T18:16:33.976Z,29.25
2018-03-26T18:18:10.970Z,15.75
2018-03-26T18:19:48.761Z,18.25
2018-03-26T18:21:28.478Z,19.75
2018-03-26T18:23:07.913Z,20.00
2018-03-26T18:24:45.221Z,19.00
2018-03-26T18:26:22.888Z,18.50
2018-03-26T18:28:00.337Z,16.75
2018-03-26T18:29:38.870Z,21.75
2018-03-26T18:31:16.177Z,21.25
2018-03-26T18:32:53.213Z,14.25
2018-03-26T18:34:30.796Z,16.00
2018-03-26T18:36:08.827Z,19.50
2018-03-26T18:37:46.081Z,18.25
2018-03-26T18:39:23.504Z,17.75
2018-03-26T18:41:00.678Z,18.25
2018-03-26T18:42:38.131Z,23.75
2018-03-26T18:44:15.686Z,40.00
2018-03-26T18:45:54.255Z,19.50
2018-03-26T18:47:31.360Z,19.25
2018-03-26T18:49:08.855Z,17.75
2018-03-26T18:50:45.966Z,18.75
2018-03-26T18:52:23.097Z,19.25
2018-03-26T18:54:00.495Z,18.75
2018-03-26T18:55:37.601Z,19.00
2018-03-26T18:57:14.915Z,22.25
2018-03-26T18:58:52.084Z,21.00
2018-03-26T19:00:31.761Z,23.50
2018-03-26T19:02:09.548Z,21.25
2018-03-26T19:03:46.779Z,22.25
2018-03-26T19:05:24.887Z,21.75
2018-03-26T19:07:02.520Z,19.50
2018-03-26T19:08:39.702Z,21.00
2018-03-26T19:10:16.878Z,24.00
2018-03-26T19:11:53.964Z,19.50
2018-03-26T19:13:32.234Z,27.00
2018-03-26T19:15:10.263Z,26.25
2018-03-26T19:16:48.229Z,20.00
2018-03-26T19:18:26.416Z,19.00
2018-03-26T19:20:03.598Z,20.75
2018-03-26T19:21:41.321Z,20.75
2018-03-26T19:32:52.799Z,27.25
2018-03-26T19:36:54.383Z,25.50
2018-03-26T19:38:31.505Z,27.25
2018-03-26T19:40:09.735Z,21.75
2018-03-26T19:41:47.149Z,26.25
2018-03-26T19:43:25.656Z,22.25
2018-03-26T19:45:02.612Z,24.25
2018-03-26T19:46:41.944Z,24.25
2018-03-26T19:48:20.940Z,17.75
2018-03-26T19:49:58.482Z,21.75
2018-03-26T19:51:35.528Z,26.50
2018-03-26T19:53:12.906Z,18.00
2018-03-26T19:54:50.579Z,24.75
2018-03-26T19:56:29.870Z,23.00
2018-03-26T19:58:08.096Z,26.75
2018-03-26T19:59:46.002Z,24.00
2018-03-26T20:03:07.237Z,24.50
2018-03-26T20:04:44.211Z,24.25
2018-03-26T20:06:21.863Z,26.00
2018-03-26T20:07:59.403Z,24.00
2018-03-26T20:09:38.289Z,26.00
2018-03-26T20:11:15.348Z,29.50
2018-03-26T20:18:49.086Z,27.00
2018-03-26T20:20:28.931Z,33.00
2018-03-26T20:28:33.570Z,27.25
2018-03-26T20:30:10.472Z,33.50
2018-03-26T20:31:47.702Z,26.75
2018-03-26T20:33:25.151Z,30.25
2018-03-26T20:35:02.752Z,31.00
2018-03-26T20:36:39.848Z,31.75
2018-03-26T20:38:18.205Z,34.25
2018-03-26T20:39:56.766Z,26.75
2018-03-26T20:41:34.708Z,28.50
2018-03-26T20:43:12.251Z,31.75
2018-03-26T20:44:49.292Z,30.75
2018-03-26T20:46:27.269Z,32.50
2018-03-26T20:48:09.587Z,32.50
2018-03-26T20:53:28.341Z,30.75
2018-03-26T20:55:06.030Z,31.00
2018-03-26T20:56:44.016Z,34.00
2018-03-26T20:58:24.049Z,29.75
2018-03-26T21:00:04.602Z,29.00
2018-03-26T21:01:43.202Z,36.00
2018-03-26T21:03:22.470Z,31.00
2018-03-26T21:05:01.119Z,32.75
2018-03-26T21:06:39.222Z,30.75
2018-03-26T21:08:18.234Z,45.25
2018-03-26T21:09:56.132Z,39.75
2018-03-26T21:11:34.232Z,37.25
2018-03-26T21:13:11.496Z,34.00
2018-03-26T21:14:48.613Z,32.50
2018-03-26T21:16:27.564Z,32.25
2018-03-26T21:18:05.195Z,38.25
2018-03-26T21:19:42.970Z,32.00
2018-03-26T21:21:19.990Z,32.50
2018-03-26T21:22:57.992Z,31.75
2018-03-26T21:24:36.467Z,37.25
2018-03-26T21:26:14.380Z,37.50
2018-03-26T21:27:52.329Z,39.00
2018-03-26T21:29:29.485Z,37.75
2018-03-26T21:31:07.400Z,30.50
2018-03-26T21:32:45.251Z,37.25
2018-03-26T21:34:22.243Z,40.25
2018-03-26T21:35:59.090Z,36.50
2018-03-26T21:47:54.096Z,42.00
2018-03-26T21:49:31.272Z,41.25
2018-03-26T21:51:08.460Z,36.25
2018-03-26T21:52:45.470Z,37.50
2018-03-26T21:54:22.591Z,39.50
2018-03-26T21:55:59.703Z,39.50
2018-03-26T21:57:36.725Z,30.50
2018-03-26T21:59:14.218Z,38.75
2018-03-26T22:00:51.665Z,35.75
2018-03-26T22:02:29.715Z,33.00
2018-03-26T22:04:06.873Z,34.25
2018-03-26T22:05:44.247Z,36.75
2018-03-26T22:07:21.447Z,43.25
2018-03-26T22:08:58.478Z,35.25
2018-03-26T22:24:49.852Z,41.25
2018-03-26T22:26:27.648Z,42.00
2018-03-26T22:28:04.848Z,43.75
2018-03-26T22:33:32.744Z,45.25
2018-03-26T22:35:10.200Z,42.75
2018-03-26T22:36:49.379Z,50.50
2018-03-26T22:38:34.871Z,46.50
2018-03-26T22:42:03.894Z,50.75
2018-03-26T22:45:34.715Z,41.50
2018-03-26T22:47:17.118Z,47.25
2018-03-26T22:48:57.140Z,50.00
2018-03-26T22:50:34.569Z,46.75
2018-03-26T22:52:12.403Z,45.75
2018-03-26T22:53:50.228Z,55.50
2018-03-26T22:57:28.747Z,63.75
2018-03-26T23:01:37.349Z,54.25
2018-03-26T23:05:19.937Z,60.00
2018-03-26T23:06:56.993Z,63.25
2018-03-26T23:08:34.138Z,55.00
2018-03-26T23:10:11.701Z,55.25
2018-03-26T23:11:49.754Z,54.25
2018-03-26T23:13:26.959Z,56.50
2018-03-26T23:15:05.025Z,49.00
2018-03-26T23:16:44.848Z,57.00
2018-03-26T23:18:22.100Z,55.50
2018-03-26T23:19:59.538Z,55.75
2018-03-26T23:21:40.937Z,65.50
2018-03-26T23:33:11.342Z,58.75
2018-03-26T23:34:49.301Z,63.50
2018-03-26T23:36:27.998Z,65.75
2018-03-26T23:38:05.901Z,68.00
2018-03-26T23:39:43.210Z,71.25
2018-03-26T23:41:20.856Z,72.00
2018-03-26T23:42:58.438Z,63.75
2018-03-26T23:44:36.622Z,71.25
2018-03-26T23:46:14.233Z,75.25
2018-03-26T23:47:51.518Z,75.25
2018-03-26T23:49:29.223Z,75.50
2018-03-26T23:51:06.577Z,74.75
2018-03-26T23:52:44.206Z,69.50
2018-03-26T23:54:21.826Z,74.50
2018-03-26T23:56:00.537Z,70.00
2018-03-26T23:57:38.516Z,69.25
2018-03-26T23:59:16.704Z,67.25
